createdAt,value
2018-04-22T00:01:45.053Z,99850.88
2018-04-22T00:04:11.435Z,99854.92
2018-04-22T00:06:37.810Z,99860.50
2018-04-22T00:09:05.118Z,99863.80
2018-04-22T00:11:31.504Z,99862.80
2018-04-22T00:13:57.873Z,99858.38
2018-04-22T00:16:24.225Z,99861.31
2018-04-22T00:18:50.657Z,99859.00
2018-04-22T00:21:17.021Z,99860.28
2018-04-22T00:23:43.372Z,99849.16
2018-04-22T00:26:09.770Z,99860.63
2018-04-22T00:28:36.354Z,99852.30
2018-04-22T00:31:02.806Z,99849.22
2018-04-22T00:33:29.133Z,99852.84
2018-04-22T00:35:55.466Z,99849.09
2018-04-22T00:38:21.866Z,99848.89
2018-04-22T00:40:48.224Z,99847.36
2018-04-22T00:43:14.648Z,99840.63
2018-04-22T00:45:41.068Z,99843.73
2018-04-22T00:48:07.434Z,99843.66
2018-04-22T00:50:33.806Z,99841.52
2018-04-22T00:53:00.201Z,99847.61
2018-04-22T00:55:26.593Z,99848.47
2018-04-22T00:57:52.962Z,99848.47
2018-04-22T01:00:19.382Z,99846.06
2018-04-22T01:02:45.812Z,99839.56
2018-04-22T01:05:12.190Z,99838.56
2018-04-22T01:07:38.603Z,99831.09
2018-04-22T01:10:04.937Z,99832.29
2018-04-22T01:12:31.322Z,99831.18
2018-04-22T01:14:57.697Z,99836.05
2018-04-22T01:17:24.020Z,99834.66
2018-04-22T01:19:50.436Z,99839.59
2018-04-22T01:22:16.805Z,99829.15
2018-04-22T01:24:43.165Z,99828.88
2018-04-22T01:27:09.523Z,99835.05
2018-04-22T01:29:35.833Z,99827.27
2018-04-22T01:32:02.298Z,99825.59
2018-04-22T01:34:28.694Z,99818.70
2018-04-22T01:36:55.090Z,99810.91
2018-04-22T01:39:21.469Z,99810.86
2018-04-22T01:41:47.930Z,99806.09
2018-04-22T01:44:14.292Z,99803.89
2018-04-22T01:46:40.679Z,99801.87
2018-04-22T01:49:07.101Z,99797.41
2018-04-22T01:51:33.437Z,99804.24
2018-04-22T01:53:59.892Z,99809.15
2018-04-22T01:56:26.222Z,99801.00
2018-04-22T01:58:52.594Z,99795.34
2018-04-22T02:01:18.976Z,99794.28
2018-04-22T02:03:45.377Z,99793.92
2018-04-22T02:06:11.805Z,99795.11
2018-04-22T02:08:38.257Z,99798.99
2018-04-22T02:11:04.656Z,99799.91
2018-04-22T02:13:31.032Z,99793.72
2018-04-22T02:15:57.415Z,99795.80
2018-04-22T02:18:23.920Z,99797.48
2018-04-22T02:20:50.353Z,99791.28
2018-04-22T02:23:16.740Z,99793.36
2018-04-22T02:25:43.115Z,99788.34
2018-04-22T02:28:09.601Z,99787.95
2018-04-22T02:30:35.934Z,99788.75
2018-04-22T02:33:02.297Z,99793.89
2018-04-22T02:35:28.614Z,99795.57
2018-04-22T02:37:55.010Z,99791.27
2018-04-22T02:40:21.382Z,99783.04
2018-04-22T02:42:47.714Z,99786.30
2018-04-22T02:45:14.038Z,99784.05
2018-04-22T02:47:40.426Z,99787.48
2018-04-22T02:50:06.812Z,99793.80
2018-04-22T02:52:33.188Z,99790.91
2018-04-22T02:54:59.801Z,99791.98
2018-04-22T02:57:26.172Z,99790.98
2018-04-22T02:59:52.534Z,99791.92
2018-04-22T03:02:18.926Z,99782.67
2018-04-22T03:04:45.293Z,99789.63
2018-04-22T03:07:11.660Z,99789.14
2018-04-22T03:09:38.081Z,99796.87
2018-04-22T03:12:04.418Z,99806.38
2018-04-22T03:14:30.815Z,99802.94
2018-04-22T03:16:57.289Z,99804.20
2018-04-22T03:19:23.642Z,99799.00
2018-04-22T03:21:49.969Z,99799.39
2018-04-22T03:24:16.313Z,99796.62
2018-04-22T03:26:42.697Z,99798.13
2018-04-22T03:29:09.081Z,99800.94
2018-04-22T03:31:35.493Z,99802.13
2018-04-22T03:34:02.002Z,99805.89
2018-04-22T03:36:28.362Z,99805.38
2018-04-22T03:38:54.709Z,99805.09
2018-04-22T03:41:21.065Z,99803.41
2018-04-22T03:43:47.428Z,99803.95
2018-04-22T03:46:13.853Z,99797.66
2018-04-22T03:48:40.239Z,99801.89
2018-04-22T03:51:06.617Z,99804.34
2018-04-22T03:53:33.014Z,99804.50
2018-04-22T03:55:59.365Z,99809.27
2018-04-22T03:58:25.741Z,99810.27
2018-04-22T04:00:52.095Z,99811.77
2018-04-22T04:03:18.457Z,99813.61
2018-04-22T04:05:44.829Z,99816.33
2018-04-22T04:08:11.198Z,99814.05
2018-04-22T04:10:37.617Z,99816.55
2018-04-22T04:13:04.024Z,99815.59
2018-04-22T04:15:30.393Z,99817.31
2018-04-22T04:31:32.395Z,99827.08
2018-04-22T04:33:58.831Z,99829.52
2018-04-22T04:36:25.178Z,99834.05
2018-04-22T04:38:51.538Z,99841.06
2018-04-22T04:41:17.918Z,99835.29
2018-04-22T04:43:44.261Z,99835.12
2018-04-22T04:46:10.613Z,99835.70
2018-04-22T04:48:36.984Z,99835.54
2018-04-22T04:51:03.409Z,99835.89
2018-04-22T04:53:29.911Z,99830.73
2018-04-22T04:55:56.322Z,99828.95
2018-04-22T04:58:22.775Z,99827.80
2018-04-22T05:00:49.146Z,99826.80
2018-04-22T05:03:15.527Z,99826.81
2018-04-22T05:05:41.837Z,99820.00
2018-04-22T05:08:08.184Z,99820.55
2018-04-22T05:10:34.517Z,99815.64
2018-04-22T05:13:00.909Z,99819.34
2018-04-22T05:15:27.323Z,99808.08
2018-04-22T05:17:53.730Z,99809.05
2018-04-22T05:20:21.842Z,99810.21
2018-04-22T05:22:48.268Z,99803.54
2018-04-22T05:25:14.722Z,99802.50
2018-04-22T05:27:41.308Z,99803.13
2018-04-22T05:30:07.670Z,99794.67
2018-04-22T05:32:34.044Z,99799.84
2018-04-22T05:35:00.771Z,99807.11
2018-04-22T05:37:27.117Z,99810.31
2018-04-22T05:39:53.462Z,99802.16
2018-04-22T05:42:20.152Z,99809.70
2018-04-22T05:44:46.549Z,99803.94
2018-04-22T05:47:13.080Z,99809.50
2018-04-22T05:49:39.444Z,99816.63
2018-04-22T05:52:05.826Z,99804.37
2018-04-22T05:54:32.194Z,99810.53
2018-04-22T05:56:58.540Z,99812.39
2018-04-22T05:59:25.042Z,99812.97
2018-04-22T06:01:51.480Z,99814.89
2018-04-22T06:04:17.832Z,99810.53
2018-04-22T06:06:44.270Z,99812.48
2018-04-22T06:09:10.691Z,99804.34
2018-04-22T06:11:37.114Z,99804.08
2018-04-22T06:14:03.501Z,99811.30
2018-04-22T06:16:30.384Z,99808.95
2018-04-22T06:18:56.757Z,99813.10
2018-04-22T06:21:23.086Z,99810.19
2018-04-22T06:23:49.650Z,99810.98
2018-04-22T06:26:16.034Z,99817.36
2018-04-22T06:28:42.422Z,99810.63
2018-04-22T06:31:08.775Z,99812.72
2018-04-22T06:33:35.164Z,99811.19
2018-04-22T06:36:01.545Z,99806.33
2018-04-22T06:38:27.981Z,99808.02
2018-04-22T06:40:54.289Z,99804.49
2018-04-22T06:43:20.664Z,99801.72
2018-04-22T06:45:47.038Z,99799.28
2018-04-22T06:48:13.437Z,99800.72
2018-04-22T06:50:39.940Z,99806.16
2018-04-22T06:53:06.372Z,99804.52
2018-04-22T06:55:32.738Z,99798.46
2018-04-22T06:57:59.214Z,99796.59
2018-04-22T07:00:25.607Z,99798.23
2018-04-22T07:02:52.109Z,99798.84
2018-04-22T07:05:18.505Z,99796.02
2018-04-22T07:07:44.841Z,99793.02
2018-04-22T07:10:11.204Z,99790.54
2018-04-22T07:12:37.586Z,99789.53
2018-04-22T07:15:03.952Z,99793.48
2018-04-22T07:17:30.296Z,99791.36
2018-04-22T07:19:56.792Z,99793.41
2018-04-22T07:22:23.142Z,99791.50
2018-04-22T07:24:49.545Z,99798.14
2018-04-22T07:27:16.194Z,99789.98
2018-04-22T07:29:42.566Z,99791.91
2018-04-22T07:32:09.017Z,99794.09
2018-04-22T07:34:35.419Z,99794.84
2018-04-22T07:37:01.787Z,99792.09
2018-04-22T07:39:28.146Z,99790.30
2018-04-22T07:41:54.504Z,99785.31
2018-04-22T07:44:20.855Z,99790.59
2018-04-22T07:46:47.204Z,99791.82
2018-04-22T07:49:13.577Z,99793.16
2018-04-22T07:51:39.924Z,99789.03
2018-04-22T07:54:06.389Z,99791.58
2018-04-22T07:56:32.772Z,99788.55
2018-04-22T07:58:59.102Z,99789.19
2018-04-22T08:01:25.584Z,99790.69
2018-04-22T08:03:51.951Z,99788.92
2018-04-22T08:06:18.294Z,99792.25
2018-04-22T08:08:44.653Z,99793.41
2018-04-22T08:11:11.015Z,99790.53
2018-04-22T08:13:37.444Z,99784.56
2018-04-22T08:16:03.810Z,99780.97
2018-04-22T08:18:30.172Z,99778.61
2018-04-22T08:20:56.523Z,99771.34
2018-04-22T08:23:22.865Z,99766.64
2018-04-22T08:25:49.287Z,99767.81
2018-04-22T08:28:15.669Z,99763.58
2018-04-22T08:30:42.233Z,99762.76
2018-04-22T08:33:08.919Z,99764.70
2018-04-22T08:35:35.273Z,99767.16
2018-04-22T08:38:01.705Z,99759.06
2018-04-22T08:40:28.110Z,99755.33
2018-04-22T08:42:54.478Z,99760.59
2018-04-22T08:45:20.873Z,99751.15
2018-04-22T08:47:47.234Z,99756.89
2018-04-22T08:50:13.634Z,99755.38
2018-04-22T08:52:40.037Z,99747.28
2018-04-22T08:55:06.387Z,99753.30
2018-04-22T08:57:32.782Z,99749.32
2018-04-22T08:59:59.183Z,99755.58
2018-04-22T09:02:25.533Z,99750.59
2018-04-22T09:04:52.033Z,99753.88
2018-04-22T09:07:18.475Z,99752.53
2018-04-22T09:09:44.987Z,99747.31
2018-04-22T09:12:11.448Z,99744.02
2018-04-22T09:14:37.853Z,99747.52
2018-04-22T09:17:04.226Z,99743.20
2018-04-22T09:19:30.578Z,99745.66
2018-04-22T09:21:57.017Z,99745.49
2018-04-22T09:24:23.358Z,99738.52
2018-04-22T09:26:49.750Z,99732.37
2018-04-22T09:29:16.079Z,99730.37
2018-04-22T09:31:42.477Z,99727.69
2018-04-22T09:34:08.927Z,99726.49
2018-04-22T09:36:35.286Z,99728.89
2018-04-22T09:39:01.673Z,99724.50
2018-04-22T09:41:28.186Z,99718.16
2018-04-22T09:43:54.538Z,99713.91
2018-04-22T09:46:20.964Z,99712.17
2018-04-22T09:48:47.296Z,99706.89
2018-04-22T09:51:13.677Z,99708.70
2018-04-22T09:53:40.053Z,99705.66
2018-04-22T09:56:06.417Z,99701.64
2018-04-22T09:58:32.902Z,99700.66
2018-04-22T10:01:00.281Z,99698.05
2018-04-22T10:03:26.717Z,99695.36
2018-04-22T10:05:53.106Z,99698.39
2018-04-22T10:08:19.481Z,99685.47
2018-04-22T10:10:45.839Z,99688.67
2018-04-22T10:13:12.149Z,99690.14
2018-04-22T10:15:38.550Z,99687.99
2018-04-22T10:18:04.929Z,99684.66
2018-04-22T10:20:31.414Z,99676.11
2018-04-22T10:22:57.901Z,99677.24
2018-04-22T10:25:24.271Z,99676.19
2018-04-22T10:27:50.645Z,99671.52
2018-04-22T10:30:17.103Z,99672.44
2018-04-22T10:32:43.445Z,99669.36
2018-04-22T10:35:09.843Z,99667.59
2018-04-22T10:37:36.254Z,99663.36
2018-04-22T10:40:02.721Z,99665.87
2018-04-22T10:42:29.103Z,99663.06
2018-04-22T10:44:55.495Z,99665.81
2018-04-22T10:47:21.862Z,99652.28
2018-04-22T10:49:48.349Z,99658.88
2018-04-22T10:52:14.872Z,99649.09
2018-04-22T10:54:41.310Z,99640.87
2018-04-22T10:57:07.726Z,99646.55
2018-04-22T10:59:34.095Z,99645.67
2018-04-22T11:02:00.505Z,99639.98
2018-04-22T11:04:26.865Z,99639.41
2018-04-22T11:06:53.249Z,99634.36
2018-04-22T11:09:19.642Z,99631.77
2018-04-22T11:11:46.281Z,99633.21
2018-04-22T11:14:12.695Z,99629.66
2018-04-22T11:16:39.053Z,99622.88
2018-04-22T11:19:05.411Z,99626.55
2018-04-22T11:21:31.843Z,99630.02
2018-04-22T11:23:58.241Z,99623.19
2018-04-22T11:26:24.629Z,99619.27
2018-04-22T11:28:51.026Z,99621.17
2018-04-22T11:31:17.406Z,99617.48
2018-04-22T11:33:43.770Z,99610.77
2018-04-22T11:36:10.171Z,99611.02
2018-04-22T11:38:36.534Z,99613.54
2018-04-22T11:41:02.917Z,99607.65
2018-04-22T11:43:29.361Z,99609.00
2018-04-22T11:45:55.726Z,99603.80
2018-04-22T11:48:22.105Z,99602.09
2018-04-22T11:50:48.504Z,99599.66
2018-04-22T11:53:14.867Z,99604.97
2018-04-22T11:55:41.249Z,99597.81
2018-04-22T11:58:07.627Z,99593.94
2018-04-22T12:00:34.111Z,99596.91
2018-04-22T12:03:00.470Z,99594.89
2018-04-22T12:05:26.877Z,99594.12
2018-04-22T12:07:53.253Z,99587.66
2018-04-22T12:10:19.742Z,99581.75
2018-04-22T12:12:46.149Z,99585.62
2018-04-22T12:15:12.510Z,99579.75
2018-04-22T12:17:38.878Z,99578.39
2018-04-22T12:20:05.267Z,99571.92
2018-04-22T12:22:31.621Z,99562.58
2018-04-22T12:24:58.036Z,99561.41
2018-04-22T12:27:24.394Z,99562.16
2018-04-22T12:29:50.762Z,99553.33
2018-04-22T12:32:17.205Z,99552.20
2018-04-22T12:34:43.569Z,99544.97
2018-04-22T12:37:09.941Z,99540.53
2018-04-22T12:39:36.325Z,99528.69
2018-04-22T12:42:02.728Z,99535.55
2018-04-22T12:44:29.109Z,99536.59
2018-04-22T12:46:55.473Z,99534.22
2018-04-22T12:49:21.821Z,99530.78
2018-04-22T12:51:48.291Z,99529.16
2018-04-22T12:54:14.669Z,99524.53
2018-04-22T12:56:41.017Z,99518.22
2018-04-22T12:59:07.373Z,99517.96
2018-04-22T13:01:33.735Z,99515.05
2018-04-22T13:04:00.191Z,99514.22
2018-04-22T13:06:26.542Z,99510.77
2018-04-22T13:08:52.969Z,99515.34
2018-04-22T13:11:19.456Z,99507.27
2018-04-22T13:13:46.218Z,99505.42
2018-04-22T13:16:12.614Z,99502.42
2018-04-22T13:18:39.014Z,99508.39
2018-04-22T13:21:05.398Z,99497.20
2018-04-22T13:23:32.001Z,99500.64
2018-04-22T13:25:58.346Z,99492.46
2018-04-22T13:28:24.705Z,99490.24
2018-04-22T13:30:51.371Z,99493.41
2018-04-22T13:33:17.758Z,99486.33
2018-04-22T13:35:44.173Z,99487.92
2018-04-22T13:38:10.585Z,99482.06
2018-04-22T13:40:36.962Z,99484.98
2018-04-22T13:43:03.351Z,99486.47
2018-04-22T13:45:29.758Z,99476.09
2018-04-22T13:47:56.146Z,99481.45
2018-04-22T13:50:22.513Z,99472.95
2018-04-22T13:52:48.919Z,99468.18
2018-04-22T13:55:15.331Z,99465.72
2018-04-22T13:57:41.704Z,99469.84
2018-04-22T14:00:08.077Z,99461.41
2018-04-22T14:02:34.563Z,99461.29
2018-04-22T14:05:01.090Z,99460.03
2018-04-22T14:07:27.470Z,99458.05
2018-04-22T14:09:53.979Z,99455.27
2018-04-22T14:12:20.332Z,99452.73
2018-04-22T14:14:46.790Z,99447.83
2018-04-22T14:17:13.152Z,99448.36
2018-04-22T14:19:39.517Z,99442.44
2018-04-22T14:22:05.897Z,99448.09
2018-04-22T14:24:32.286Z,99446.16
2018-04-22T14:26:58.630Z,99444.76
2018-04-22T14:29:25.050Z,99441.64
2018-04-22T14:31:51.603Z,99444.26
2018-04-22T14:34:17.950Z,99435.84
2018-04-22T14:36:44.373Z,99433.44
2018-04-22T14:39:10.797Z,99435.99
2018-04-22T14:41:37.230Z,99433.59
2018-04-22T14:44:15.845Z,99435.99
2018-04-22T14:46:42.228Z,99431.91
2018-04-22T14:49:08.763Z,99429.02
2018-04-22T14:51:35.309Z,99427.83
2018-04-22T14:54:01.662Z,99430.69
2018-04-22T14:56:28.375Z,99423.41
2018-04-22T14:58:54.745Z,99422.14
2018-04-22T15:01:21.141Z,99423.78
2018-04-22T15:03:47.502Z,99420.14
2018-04-22T15:06:13.866Z,99419.64
2018-04-22T15:08:40.339Z,99410.14
2018-04-22T15:11:06.710Z,99416.98
2018-04-22T15:13:33.125Z,99404.67
2018-04-22T15:15:59.498Z,99403.75
2018-04-22T15:18:25.972Z,99396.70
2018-04-22T15:20:52.349Z,99388.70
2018-04-22T15:23:18.755Z,99387.20
2018-04-22T15:25:45.246Z,99378.28
2018-04-22T15:28:11.601Z,99381.33
2018-04-22T15:30:38.004Z,99366.95
2018-04-22T15:33:04.381Z,99365.17
2018-04-22T15:35:30.738Z,99364.30
2018-04-22T15:37:57.114Z,99360.52
2018-04-22T15:40:23.491Z,99357.75
2018-04-22T15:42:49.898Z,99363.14
2018-04-22T15:45:16.331Z,99361.59
2018-04-22T15:47:42.685Z,99360.52
2018-04-22T15:50:09.037Z,99355.38
2018-04-22T15:52:35.407Z,99352.33
2018-04-22T15:55:01.791Z,99361.25
2018-04-22T15:57:28.498Z,99360.25
2018-04-22T15:59:55.034Z,99360.14
2018-04-22T16:02:21.364Z,99358.86
2018-04-22T16:04:47.765Z,99362.79
2018-04-22T16:07:14.232Z,99360.47
2018-04-22T16:09:40.600Z,99360.84
2018-04-22T16:12:06.929Z,99354.97
2018-04-22T16:14:33.285Z,99355.31
2018-04-22T16:16:59.626Z,99359.80
2018-04-22T16:19:26.046Z,99363.94
2018-04-22T16:21:52.420Z,99358.31
2018-04-22T16:24:18.769Z,99360.61
2018-04-22T16:26:45.194Z,99364.91
2018-04-22T16:29:11.626Z,99363.20
2018-04-22T16:31:38.333Z,99367.18
2018-04-22T16:34:04.700Z,99372.59
2018-04-22T16:36:31.203Z,99384.03
2018-04-22T16:38:57.572Z,99382.52
2018-04-22T16:41:24.023Z,99379.86
2018-04-22T16:43:50.330Z,99384.40
2018-04-22T16:46:16.686Z,99384.31
2018-04-22T16:48:43.087Z,99387.30
2018-04-22T16:51:09.465Z,99386.25
2018-04-22T16:53:35.901Z,99386.02
2018-04-22T16:56:02.269Z,99386.27
2018-04-22T16:58:28.686Z,99392.24
2018-04-22T17:00:55.050Z,99387.12
2018-04-22T17:03:21.417Z,99397.55
2018-04-22T17:05:47.824Z,99391.18
2018-04-22T17:08:14.214Z,99394.69
2018-04-22T17:10:40.597Z,99403.24
2018-04-22T17:13:06.969Z,99402.34
2018-04-22T17:15:33.296Z,99401.08
2018-04-22T17:17:59.658Z,99406.11
2018-04-22T17:20:26.011Z,99406.12
2018-04-22T17:22:52.378Z,99410.94
2018-04-22T17:25:18.785Z,99418.90
2018-04-22T17:27:45.201Z,99418.05
2018-04-22T17:30:11.659Z,99420.22
2018-04-22T17:32:38.045Z,99425.59
2018-04-22T17:35:04.443Z,99427.65
2018-04-22T17:37:30.802Z,99429.48
2018-04-22T17:39:57.181Z,99432.23
2018-04-22T17:42:23.546Z,99425.11
2018-04-22T17:44:49.873Z,99430.40
2018-04-22T17:47:16.362Z,99429.37
2018-04-22T17:49:42.758Z,99436.09
2018-04-22T17:52:09.168Z,99440.74
2018-04-22T17:54:35.737Z,99448.67
2018-04-22T17:57:02.461Z,99447.91
2018-04-22T17:59:28.822Z,99446.43
2018-04-22T18:01:55.222Z,99456.20
2018-04-22T18:04:21.577Z,99459.30
2018-04-22T18:06:47.964Z,99461.75
2018-04-22T18:09:14.341Z,99468.11
2018-04-22T18:11:40.725Z,99473.68
2018-04-22T18:14:07.096Z,99475.02
2018-04-22T18:16:33.563Z,99475.73
2018-04-22T18:18:59.996Z,99474.27
2018-04-22T18:21:26.460Z,99481.81
2018-04-22T18:23:52.877Z,99483.69
2018-04-22T18:26:19.300Z,99487.77
2018-04-22T18:28:45.661Z,99485.36
2018-04-22T18:31:12.164Z,99487.91
2018-04-22T18:33:38.522Z,99486.20
2018-04-22T18:36:04.909Z,99491.67
2018-04-22T18:38:31.315Z,99488.70
2018-04-22T18:40:57.674Z,99488.65
2018-04-22T18:43:24.102Z,99490.87
2018-04-22T18:45:50.489Z,99488.73
2018-04-22T18:48:16.873Z,99500.49
2018-04-22T18:50:43.242Z,99499.68
2018-04-22T18:53:09.602Z,99500.86
2018-04-22T18:55:35.949Z,99492.34
2018-04-22T18:58:02.343Z,99492.38
2018-04-22T19:00:28.741Z,99495.77
2018-04-22T19:02:55.113Z,99501.35
2018-04-22T19:05:21.693Z,99509.31
2018-04-22T19:07:48.031Z,99507.41
2018-04-22T19:10:14.519Z,99507.55
2018-04-22T19:12:40.890Z,99511.72
2018-04-22T19:15:07.265Z,99508.13
2018-04-22T19:17:33.646Z,99512.00
2018-04-22T19:20:00.003Z,99512.65
2018-04-22T19:22:26.361Z,99508.72
2018-04-22T19:24:52.754Z,99514.73
2018-04-22T19:27:19.212Z,99511.88
2018-04-22T19:29:45.774Z,99508.02
2018-04-22T19:32:12.231Z,99505.72
2018-04-22T19:34:38.694Z,99505.30
2018-04-22T19:37:05.066Z,99501.82
2018-04-22T19:39:31.459Z,99506.32
2018-04-22T19:41:57.829Z,99509.12
2018-04-22T19:44:24.253Z,99510.78
2018-04-22T19:46:50.737Z,99510.78
2018-04-22T19:49:17.155Z,99505.13
2018-04-22T19:51:44.381Z,99508.78
2018-04-22T19:54:11.464Z,99513.92
2018-04-22T19:56:38.644Z,99513.80
2018-04-22T19:59:05.372Z,99510.96
2018-04-22T20:01:31.838Z,99513.64
2018-04-22T20:03:58.223Z,99513.12
2018-04-22T20:06:24.606Z,99514.10
2018-04-22T20:08:50.997Z,99511.17
2018-04-22T20:11:17.446Z,99513.84
2018-04-22T20:13:43.810Z,99511.94
2018-04-22T20:16:10.243Z,99509.48
2018-04-22T20:18:36.649Z,99515.41
2018-04-22T20:21:03.027Z,99509.64
2018-04-22T20:23:29.519Z,99512.38
2018-04-22T20:25:56.184Z,99506.82
2018-04-22T20:28:22.578Z,99505.91
2018-04-22T20:30:48.954Z,99507.89
2018-04-22T20:33:15.322Z,99506.83
2018-04-22T20:35:41.794Z,99510.98
2018-04-22T20:38:08.213Z,99505.98
2018-04-22T20:40:34.622Z,99505.98
2018-04-22T20:43:00.981Z,99511.74
2018-04-22T20:45:27.406Z,99517.72
2018-04-22T20:47:53.891Z,99514.89
2018-04-22T20:50:20.277Z,99512.34
2018-04-22T20:52:46.761Z,99510.09
2018-04-22T20:55:13.174Z,99512.70
2018-04-22T20:57:39.610Z,99510.95
2018-04-22T21:00:06.093Z,99507.48
2018-04-22T21:02:32.607Z,99504.81
2018-04-22T21:04:59.050Z,99516.55
2018-04-22T21:07:25.525Z,99512.06
2018-04-22T21:09:51.979Z,99511.20
2018-04-22T21:12:18.358Z,99519.27
2018-04-22T21:14:44.717Z,99519.20
2018-04-22T21:17:11.098Z,99520.31
2018-04-22T21:19:37.448Z,99519.47
2018-04-22T21:22:03.814Z,99526.02
2018-04-22T21:24:30.189Z,99519.40
2018-04-22T21:26:56.534Z,99524.52
2018-04-22T21:29:22.924Z,99525.63
2018-04-22T21:31:49.302Z,99521.78
2018-04-22T21:34:15.703Z,99528.86
2018-04-22T21:36:42.057Z,99536.98
2018-04-22T21:39:08.401Z,99534.89
2018-04-22T21:41:34.762Z,99541.12
2018-04-22T21:44:01.179Z,99542.51
2018-04-22T21:46:27.568Z,99545.95
2018-04-22T21:48:53.965Z,99539.17
2018-04-22T21:51:20.325Z,99541.33
2018-04-22T21:53:46.705Z,99537.66
2018-04-22T21:56:13.093Z,99535.40
2018-04-22T21:58:39.465Z,99542.25
2018-04-22T22:01:05.842Z,99537.58
2018-04-22T22:03:32.453Z,99541.12
2018-04-22T22:05:58.979Z,99538.74
2018-04-22T22:08:25.717Z,99540.70
2018-04-22T22:10:52.113Z,99539.73
2018-04-22T22:13:18.453Z,99538.12
2018-04-22T22:15:44.950Z,99534.34
2018-04-22T22:18:11.280Z,99536.50
2018-04-22T22:20:37.733Z,99535.02
2018-04-22T22:23:04.090Z,99537.02
2018-04-22T22:25:30.468Z,99539.58
2018-04-22T22:27:56.841Z,99539.28
2018-04-22T22:30:23.241Z,99537.00
2018-04-22T22:32:49.614Z,99535.59
2018-04-22T22:35:15.981Z,99535.98
2018-04-22T22:37:42.461Z,99532.62
2018-04-22T22:40:08.824Z,99527.63
2018-04-22T22:42:35.324Z,99525.41
2018-04-22T22:45:01.707Z,99529.09
2018-04-22T22:47:28.089Z,99529.05
2018-04-22T22:49:54.426Z,99526.31
2018-04-22T22:52:20.777Z,99526.80
2018-04-22T22:54:47.129Z,99521.03
2018-04-22T22:57:13.547Z,99519.62
2018-04-22T22:59:39.933Z,99514.02
2018-04-22T23:02:06.341Z,99509.59
2018-04-22T23:04:32.685Z,99513.36
2018-04-22T23:06:59.161Z,99508.90
2018-04-22T23:09:25.709Z,99513.31
2018-04-22T23:11:52.116Z,99518.88
2018-04-22T23:14:18.549Z,99513.36
2018-04-22T23:16:44.917Z,99514.27
2018-04-22T23:19:11.312Z,99513.83
2018-04-22T23:21:38.022Z,99518.69
2018-04-22T23:24:04.455Z,99510.61
2018-04-22T23:26:30.880Z,99509.17
2018-04-22T23:28:57.272Z,99513.59
2018-04-22T23:31:23.687Z,99506.33
2018-04-22T23:33:50.076Z,99510.73
2018-04-22T23:36:16.422Z,99512.66
2018-04-22T23:38:42.781Z,99509.82
2018-04-22T23:41:09.141Z,99508.55
2018-04-22T23:43:35.544Z,99512.72
2018-04-22T23:46:01.916Z,99502.14
2018-04-22T23:48:28.292Z,99501.77
2018-04-22T23:50:54.613Z,99504.19
2018-04-22T23:53:20.944Z,99506.70
2018-04-22T23:55:47.342Z,99505.65
2018-04-22T23:58:13.670Z,99511.34
